createdAt,value
2023-01-09T00:00:13.488Z,5.07
2023-01-09T00:02:15.354Z,5.00
2023-01-09T00:04:18.283Z,5.13
2023-01-09T00:06:20.080Z,5.50
2023-01-09T00:08:22.058Z,5.73
2023-01-09T00:10:24.190Z,5.10
2023-01-09T00:12:26.242Z,5.37
2023-01-09T00:14:28.115Z,6.57
2023-01-09T00:16:30.136Z,7.47
2023-01-09T00:18:31.931Z,7.17
2023-01-09T00:20:33.830Z,6.93
2023-01-09T00:22:37.399Z,6.20
2023-01-09T00:24:39.522Z,6.33
2023-01-09T00:26:41.283Z,5.93
2023-01-09T00:28:48.851Z,5.10
2023-01-09T00:30:59.408Z,5.83
2023-01-09T00:33:01.340Z,5.40
2023-01-09T00:35:03.394Z,5.43
2023-01-09T00:37:11.820Z,4.60
2023-01-09T00:39:13.737Z,4.87
2023-01-09T00:41:20.111Z,4.53
2023-01-09T00:43:27.376Z,4.57
2023-01-09T00:45:30.379Z,4.33
2023-01-09T00:47:46.581Z,3.70
2023-01-09T00:49:50.122Z,3.50
2023-01-09T00:51:54.101Z,3.83
2023-01-09T00:53:56.141Z,3.97
2023-01-09T00:56:01.609Z,3.93
2023-01-09T00:58:03.920Z,3.93
2023-01-09T01:00:07.583Z,3.97
2023-01-09T01:02:09.760Z,3.97
2023-01-09T01:04:30.083Z,3.63
2023-01-09T01:06:50.058Z,3.77
2023-01-09T01:08:51.901Z,3.60
2023-01-09T01:10:53.740Z,3.63
2023-01-09T01:12:55.623Z,3.87
2023-01-09T01:14:57.835Z,3.07
2023-01-09T01:16:59.785Z,3.23
2023-01-09T01:19:01.781Z,3.47
2023-01-09T01:21:12.287Z,3.50
2023-01-09T01:23:14.492Z,3.45
2023-01-09T01:25:17.404Z,3.27
2023-01-09T01:27:19.190Z,3.10
2023-01-09T01:29:20.967Z,3.42
2023-01-09T01:31:22.775Z,3.43
2023-01-09T01:33:24.593Z,3.40
2023-01-09T01:35:26.925Z,3.50
2023-01-09T01:37:28.888Z,3.67
2023-01-09T01:39:30.847Z,3.53
2023-01-09T01:41:32.639Z,3.35
2023-01-09T01:44:03.192Z,3.63
2023-01-09T01:46:05.235Z,3.47
2023-01-09T01:48:14.378Z,3.43
2023-01-09T01:50:51.951Z,3.40
2023-01-09T01:53:16.580Z,3.58
2023-01-09T01:55:19.620Z,2.93
2023-01-09T01:57:21.658Z,3.07
2023-01-09T01:59:38.747Z,2.87
2023-01-09T02:01:44.317Z,2.95
2023-01-09T02:03:46.416Z,3.38
2023-01-09T02:05:49.323Z,2.90
2023-01-09T02:07:51.342Z,2.90
2023-01-09T02:09:55.121Z,2.60
2023-01-09T02:11:58.857Z,2.90
2023-01-09T02:14:02.420Z,2.85
2023-01-09T02:16:13.378Z,2.80
2023-01-09T02:18:31.629Z,2.85
2023-01-09T02:20:40.748Z,2.33
2023-01-09T02:23:00.755Z,3.08
2023-01-09T02:25:25.327Z,2.50
2023-01-09T02:28:13.776Z,2.73
2023-01-09T02:30:31.312Z,2.60
2023-01-09T02:32:51.003Z,2.63
2023-01-09T02:35:18.490Z,2.22
2023-01-09T02:37:38.780Z,2.60
2023-01-09T02:39:51.565Z,2.20
2023-01-09T02:42:20.387Z,2.67
2023-01-09T02:44:28.486Z,2.00
2023-01-09T02:46:30.354Z,2.47
2023-01-09T02:48:32.518Z,2.50
2023-01-09T02:51:19.047Z,2.23
2023-01-09T02:54:04.481Z,2.42
2023-01-09T02:56:25.163Z,2.33
2023-01-09T02:58:50.498Z,2.45
2023-01-09T03:01:27.701Z,2.78
2023-01-09T03:03:44.949Z,2.13
2023-01-09T03:05:57.305Z,2.42
2023-01-09T03:08:04.104Z,2.22
2023-01-09T03:10:41.889Z,2.47
2023-01-09T03:12:45.516Z,2.72
2023-01-09T03:14:53.464Z,2.55
2023-01-09T03:17:02.609Z,2.33
2023-01-09T03:19:13.818Z,2.22
2023-01-09T03:21:17.294Z,2.10
2023-01-09T03:23:19.281Z,2.20
2023-01-09T03:25:21.776Z,2.17
2023-01-09T03:27:23.851Z,2.00
2023-01-09T03:29:25.782Z,2.30
2023-01-09T03:31:27.693Z,2.30
2023-01-09T03:33:29.839Z,2.33
2023-01-09T03:35:31.708Z,2.40
2023-01-09T03:37:35.876Z,2.50
2023-01-09T03:39:37.811Z,2.53
2023-01-09T03:41:39.800Z,2.28
2023-01-09T03:43:41.729Z,2.47
2023-01-09T03:45:43.953Z,2.60
2023-01-09T03:47:45.855Z,2.28
2023-01-09T03:49:47.680Z,2.45
2023-01-09T03:51:49.700Z,2.30
2023-01-09T03:53:51.561Z,2.43
2023-01-09T03:55:55.081Z,2.20
2023-01-09T03:57:56.929Z,2.30
2023-01-09T03:59:59.053Z,2.75
2023-01-09T04:02:03.664Z,2.50
2023-01-09T04:04:05.991Z,2.38
2023-01-09T04:06:08.151Z,2.67
2023-01-09T04:08:10.047Z,2.50
2023-01-09T04:10:12.279Z,2.38
2023-01-09T04:12:14.465Z,2.88
2023-01-09T04:14:16.819Z,2.38
2023-01-09T04:16:19.168Z,2.20
2023-01-09T04:18:21.133Z,2.40
2023-01-09T04:20:23.025Z,2.78
2023-01-09T04:22:25.601Z,2.30
2023-01-09T04:24:28.661Z,2.55
2023-01-09T04:26:30.542Z,2.67
2023-01-09T04:28:32.665Z,2.65
2023-01-09T04:30:34.537Z,2.33
2023-01-09T04:32:36.458Z,2.60
2023-01-09T04:34:38.270Z,2.65
2023-01-09T04:36:40.306Z,2.50
2023-01-09T04:38:42.115Z,2.90
2023-01-09T04:40:44.081Z,3.33
2023-01-09T04:42:46.217Z,3.60
2023-01-09T04:44:48.166Z,3.10
2023-01-09T04:46:50.209Z,3.10
2023-01-09T04:48:52.131Z,2.70
2023-01-09T04:50:53.970Z,3.15
2023-01-09T04:52:56.852Z,3.22
2023-01-09T04:54:58.825Z,4.20
2023-01-09T04:57:00.687Z,4.30
2023-01-09T04:59:04.262Z,5.00
2023-01-09T05:01:06.348Z,4.82
2023-01-09T05:03:08.333Z,4.90
2023-01-09T05:05:11.963Z,4.43
2023-01-09T05:07:13.992Z,4.40
2023-01-09T05:09:15.986Z,5.63
2023-01-09T05:11:17.901Z,6.50
2023-01-09T05:13:20.118Z,6.90
2023-01-09T05:15:22.212Z,7.47
2023-01-09T05:17:24.362Z,7.63
2023-01-09T05:19:26.364Z,7.80
2023-01-09T05:21:28.423Z,7.05
2023-01-09T05:23:30.388Z,5.35
2023-01-09T05:25:32.209Z,7.17
2023-01-09T05:27:34.203Z,6.95
2023-01-09T05:29:36.089Z,5.65
2023-01-09T05:31:38.151Z,5.93
2023-01-09T05:33:40.138Z,4.90
2023-01-09T05:35:42.060Z,4.13
2023-01-09T05:37:43.982Z,4.67
2023-01-09T05:39:45.919Z,4.07
2023-01-09T05:41:47.814Z,4.37
2023-01-09T05:43:49.979Z,5.65
2023-01-09T05:45:51.783Z,4.00
2023-01-09T05:47:53.754Z,3.65
2023-01-09T05:49:56.578Z,3.70
2023-01-09T05:51:58.313Z,3.58
2023-01-09T05:54:00.369Z,3.60
2023-01-09T05:56:02.434Z,3.60
2023-01-09T05:58:04.248Z,5.22
2023-01-09T06:00:07.083Z,5.67
2023-01-09T06:02:09.228Z,5.93
2023-01-09T06:04:11.119Z,7.10
2023-01-09T06:06:13.570Z,7.97
2023-01-09T06:08:15.424Z,8.07
2023-01-09T06:10:17.574Z,8.70
2023-01-09T06:12:19.571Z,8.73
2023-01-09T06:14:21.537Z,8.00
2023-01-09T06:16:23.427Z,8.00
2023-01-09T06:18:25.385Z,7.57
2023-01-09T06:20:27.324Z,6.37
2023-01-09T06:22:29.109Z,7.50
2023-01-09T06:24:30.943Z,7.27
2023-01-09T06:26:32.833Z,7.43
2023-01-09T06:28:34.741Z,6.90
2023-01-09T06:30:36.632Z,5.13
2023-01-09T06:32:38.380Z,4.90
2023-01-09T06:34:40.539Z,4.40
2023-01-09T06:36:42.753Z,4.63
2023-01-09T06:38:44.697Z,4.03
2023-01-09T06:40:47.504Z,3.53
2023-01-09T06:42:50.348Z,2.90
2023-01-09T06:44:52.447Z,2.60
2023-01-09T06:46:54.366Z,2.90
2023-01-09T06:48:56.225Z,2.90
2023-01-09T06:50:58.093Z,2.65
2023-01-09T06:53:00.117Z,2.57
2023-01-09T06:55:02.165Z,2.50
2023-01-09T06:57:04.057Z,2.30
2023-01-09T06:59:05.819Z,2.67
2023-01-09T07:01:07.834Z,2.90
2023-01-09T07:03:10.447Z,2.93
2023-01-09T07:05:12.381Z,2.55
2023-01-09T07:07:14.336Z,2.63
2023-01-09T07:09:16.320Z,2.40
2023-01-09T07:11:18.203Z,2.30
2023-01-09T07:13:20.226Z,2.38
2023-01-09T07:15:22.338Z,2.45
2023-01-09T07:17:24.157Z,3.03
2023-01-09T07:19:25.937Z,2.43
2023-01-09T07:21:27.775Z,2.47
2023-01-09T07:23:29.625Z,2.97
2023-01-09T07:25:31.476Z,2.40
2023-01-09T07:27:33.386Z,2.83
2023-01-09T07:29:35.166Z,2.25
2023-01-09T07:31:37.079Z,2.30
2023-01-09T07:33:40.505Z,2.15
2023-01-09T07:35:42.839Z,2.35
2023-01-09T07:37:46.312Z,2.40
2023-01-09T07:39:48.348Z,2.20
2023-01-09T07:41:50.245Z,2.35
2023-01-09T07:43:52.169Z,2.57
2023-01-09T07:45:54.072Z,2.60
2023-01-09T07:47:55.919Z,6.27
2023-01-09T07:49:57.820Z,4.87
2023-01-09T07:51:59.866Z,2.97
2023-01-09T07:54:01.807Z,2.47
2023-01-09T07:56:03.758Z,2.53
2023-01-09T07:58:05.784Z,2.35
2023-01-09T08:00:11.154Z,2.42
2023-01-09T08:02:18.173Z,2.20
2023-01-09T08:04:20.085Z,2.40
2023-01-09T08:06:22.070Z,2.50
2023-01-09T08:08:24.019Z,2.83
2023-01-09T08:10:25.810Z,2.50
2023-01-09T08:12:27.652Z,2.90
2023-01-09T08:14:29.682Z,3.03
2023-01-09T08:16:31.685Z,2.95
2023-01-09T08:18:33.802Z,2.97
2023-01-09T08:20:35.652Z,2.87
2023-01-09T08:22:37.859Z,2.90
2023-01-09T08:24:39.665Z,2.90
2023-01-09T08:26:41.875Z,3.42
2023-01-09T08:28:43.634Z,3.40
2023-01-09T08:30:47.410Z,4.35
2023-01-09T08:32:54.505Z,6.70
2023-01-09T08:34:56.583Z,7.72
2023-01-09T08:36:59.495Z,7.30
2023-01-09T08:39:01.653Z,4.93
2023-01-09T08:41:26.865Z,4.55
2023-01-09T08:43:47.460Z,5.78
2023-01-09T08:46:15.780Z,4.45
2023-01-09T08:48:17.703Z,6.38
2023-01-09T08:50:19.735Z,6.70
2023-01-09T08:52:21.787Z,5.00
2023-01-09T08:54:23.791Z,3.78
2023-01-09T08:56:25.596Z,2.40
2023-01-09T08:58:27.473Z,2.40
2023-01-09T09:00:29.329Z,2.45
2023-01-09T09:02:31.616Z,3.63
2023-01-09T09:04:33.414Z,4.47
2023-01-09T09:06:35.673Z,4.68
2023-01-09T09:08:37.399Z,3.30
2023-01-09T09:10:39.468Z,3.10
2023-01-09T09:12:41.593Z,2.58
2023-01-09T09:15:02.104Z,3.00
2023-01-09T09:17:03.841Z,3.67
2023-01-09T09:19:05.725Z,4.13
2023-01-09T09:21:09.014Z,3.63
2023-01-09T09:23:12.207Z,3.70
2023-01-09T09:25:15.292Z,3.63
2023-01-09T09:27:17.198Z,3.25
2023-01-09T09:29:19.010Z,3.03
2023-01-09T09:31:20.875Z,4.65
2023-01-09T09:33:22.891Z,5.20
2023-01-09T09:35:25.020Z,6.68
2023-01-09T09:37:27.022Z,7.00
2023-01-09T09:39:28.977Z,12.05
2023-01-09T09:41:52.276Z,11.15
2023-01-09T09:44:28.627Z,11.43
2023-01-09T09:46:39.340Z,13.57
2023-01-09T09:49:01.394Z,36.47
2023-01-09T09:51:45.405Z,30.13
2023-01-09T09:54:06.369Z,19.55
2023-01-09T09:56:12.722Z,8.45
2023-01-09T09:58:28.123Z,4.88
2023-01-09T10:00:30.449Z,3.03
2023-01-09T10:03:06.773Z,2.47
2023-01-09T10:05:23.510Z,2.60
2023-01-09T10:07:34.833Z,2.42
2023-01-09T10:09:49.945Z,3.17
2023-01-09T10:12:04.301Z,2.50
2023-01-09T10:14:10.639Z,2.30
2023-01-09T10:16:44.397Z,2.70
2023-01-09T10:19:04.741Z,2.85
2023-01-09T10:21:16.627Z,2.58
2023-01-09T10:23:49.251Z,2.78
2023-01-09T10:26:05.297Z,2.67
2023-01-09T10:28:32.320Z,2.97
2023-01-09T10:30:49.512Z,2.42
2023-01-09T10:32:57.029Z,2.80
2023-01-09T10:35:33.006Z,2.75
2023-01-09T10:37:42.681Z,2.63
2023-01-09T10:40:08.934Z,3.20
2023-01-09T10:42:33.545Z,2.60
2023-01-09T10:44:42.597Z,2.83
2023-01-09T10:46:53.133Z,2.50
2023-01-09T10:49:11.536Z,2.63
2023-01-09T10:51:19.964Z,2.70
2023-01-09T10:53:26.351Z,3.17
2023-01-09T10:55:44.112Z,3.25
2023-01-09T10:57:50.572Z,3.40
2023-01-09T10:59:52.675Z,3.17
2023-01-09T11:01:54.964Z,3.42
2023-01-09T11:03:59.355Z,2.92
2023-01-09T11:06:03.321Z,3.47
2023-01-09T11:08:21.676Z,3.70
2023-01-09T11:10:23.842Z,4.10
2023-01-09T11:12:33.874Z,3.45
2023-01-09T11:14:35.738Z,4.20
2023-01-09T11:16:37.555Z,5.13
2023-01-09T11:18:48.317Z,3.85
2023-01-09T11:20:50.666Z,3.13
2023-01-09T11:22:57.623Z,2.80
2023-01-09T11:25:03.376Z,3.20
2023-01-09T11:27:13.959Z,2.80
2023-01-09T11:29:20.932Z,3.22
2023-01-09T11:31:24.671Z,3.13
2023-01-09T11:33:41.329Z,3.13
2023-01-09T11:36:11.591Z,2.78
2023-01-09T11:38:16.977Z,2.20
2023-01-09T11:40:21.769Z,2.33
2023-01-09T11:42:45.069Z,2.50
2023-01-09T11:44:47.048Z,2.50
2023-01-09T11:46:49.019Z,2.63
2023-01-09T11:48:57.080Z,2.53
2023-01-09T11:51:01.904Z,2.50
2023-01-09T11:53:43.176Z,2.88
2023-01-09T11:55:53.056Z,3.00
2023-01-09T11:57:54.874Z,2.78
2023-01-09T12:00:02.049Z,2.55
2023-01-09T12:02:45.987Z,2.97
2023-01-09T12:05:03.245Z,3.20
2023-01-09T12:07:24.043Z,3.33
2023-01-09T12:09:47.938Z,3.00
2023-01-09T12:12:22.191Z,2.60
2023-01-09T12:14:35.833Z,3.10
2023-01-09T12:16:40.474Z,2.78
2023-01-09T12:19:20.789Z,2.95
2023-01-09T12:21:36.199Z,2.67
2023-01-09T12:24:15.093Z,2.80
2023-01-09T12:26:50.651Z,2.90
2023-01-09T12:28:57.634Z,2.60
2023-01-09T12:31:23.909Z,3.15
2023-01-09T12:33:55.069Z,3.10
2023-01-09T12:36:15.517Z,3.50
2023-01-09T12:38:42.121Z,3.30
2023-01-09T12:41:17.510Z,3.47
2023-01-09T12:43:34.573Z,9.88
2023-01-09T12:46:13.588Z,6.70
2023-01-09T12:48:42.242Z,5.38
2023-01-09T12:50:59.591Z,6.15
2023-01-09T12:53:30.379Z,5.13
2023-01-09T12:55:40.116Z,5.85
2023-01-09T12:57:49.203Z,5.90
2023-01-09T12:59:53.711Z,6.75
2023-01-09T13:02:03.981Z,6.45
2023-01-09T13:04:21.919Z,6.70
2023-01-09T13:06:26.491Z,7.40
2023-01-09T13:08:42.504Z,8.27
2023-01-09T13:11:19.013Z,9.63
2023-01-09T13:13:34.573Z,7.72
2023-01-09T13:15:41.876Z,7.10
2023-01-09T13:17:49.329Z,5.88
2023-01-09T13:19:53.332Z,5.45
2023-01-09T13:21:57.657Z,5.60
2023-01-09T13:24:24.964Z,5.25
2023-01-09T13:26:47.343Z,4.88
2023-01-09T13:28:57.153Z,6.03
2023-01-09T13:31:13.902Z,5.50
2023-01-09T13:33:23.071Z,4.78
2023-01-09T13:35:25.186Z,4.22
2023-01-09T13:37:35.399Z,4.05
2023-01-09T13:39:37.508Z,4.30
2023-01-09T13:42:06.839Z,4.07
2023-01-09T13:44:28.912Z,4.07
2023-01-09T13:46:43.738Z,4.10
2023-01-09T13:48:45.715Z,4.40
2023-01-09T13:50:51.017Z,4.30
2023-01-09T13:52:53.455Z,4.80
2023-01-09T13:55:00.993Z,4.97
2023-01-09T13:57:15.688Z,4.20
2023-01-09T13:59:28.298Z,3.95
2023-01-09T14:01:35.626Z,4.32
2023-01-09T14:03:38.979Z,3.97
2023-01-09T14:05:40.851Z,3.58
2023-01-09T14:07:50.675Z,3.72
2023-01-09T14:09:58.361Z,3.80
2023-01-09T14:12:06.021Z,3.67
2023-01-09T14:14:23.075Z,4.30
2023-01-09T14:16:27.407Z,3.58
2023-01-09T14:18:34.130Z,4.00
2023-01-09T14:20:39.672Z,4.63
2023-01-09T14:22:50.404Z,4.68
2023-01-09T14:25:07.644Z,4.28
2023-01-09T14:27:48.013Z,4.10
2023-01-09T14:29:49.992Z,4.53
2023-01-09T14:31:51.869Z,3.95
2023-01-09T14:34:31.185Z,4.47
2023-01-09T14:36:35.982Z,5.20
2023-01-09T14:38:48.404Z,4.90
2023-01-09T14:41:11.116Z,5.30
2023-01-09T14:43:21.507Z,5.50
2023-01-09T14:45:27.824Z,5.32
2023-01-09T14:47:39.960Z,4.55
2023-01-09T14:49:50.799Z,4.78
2023-01-09T14:51:54.195Z,4.53
2023-01-09T14:53:57.495Z,4.25
2023-01-09T14:56:02.302Z,4.78
2023-01-09T14:58:20.995Z,4.88
2023-01-09T15:00:23.752Z,6.47
2023-01-09T15:02:29.426Z,6.50
2023-01-09T15:04:36.420Z,5.88
2023-01-09T15:06:43.009Z,6.00
2023-01-09T15:08:47.591Z,5.60
2023-01-09T15:10:52.897Z,5.68
2023-01-09T15:12:57.111Z,5.60
2023-01-09T15:15:02.876Z,11.00
2023-01-09T15:17:05.209Z,18.80
2023-01-09T15:19:08.985Z,16.17
2023-01-09T15:21:19.883Z,16.00
2023-01-09T15:23:30.901Z,12.70
2023-01-09T15:25:39.666Z,11.93
2023-01-09T15:27:49.419Z,8.98
2023-01-09T15:29:52.283Z,8.45
2023-01-09T15:32:22.305Z,8.40
2023-01-09T15:34:25.994Z,11.43
2023-01-09T15:36:31.191Z,10.15
2023-01-09T15:38:36.005Z,9.48
2023-01-09T15:40:38.025Z,9.10
2023-01-09T15:42:57.355Z,9.90
2023-01-09T15:44:59.888Z,9.45
2023-01-09T15:47:04.679Z,11.05
2023-01-09T15:49:11.481Z,11.30
2023-01-09T15:51:19.884Z,12.60
2023-01-09T15:53:24.382Z,13.82
2023-01-09T15:55:37.548Z,15.68
2023-01-09T15:57:51.631Z,15.15
2023-01-09T15:59:55.131Z,15.52
2023-01-09T16:02:22.233Z,18.15
2023-01-09T16:04:25.823Z,20.92
2023-01-09T16:06:29.824Z,21.23
2023-01-09T16:08:35.910Z,19.55
2023-01-09T16:10:38.049Z,21.20
2023-01-09T16:12:40.707Z,25.55
2023-01-09T16:14:48.673Z,22.45
2023-01-09T16:16:52.725Z,22.13
2023-01-09T16:21:36.505Z,18.10
2023-01-09T16:23:38.612Z,19.30
2023-01-09T16:25:40.634Z,19.77
2023-01-09T16:27:42.693Z,20.58
2023-01-09T16:29:57.442Z,122.25
2023-01-09T16:32:06.245Z,124.15
2023-01-09T16:34:13.188Z,120.55
2023-01-09T16:36:16.994Z,87.13
2023-01-09T16:38:19.288Z,66.63
2023-01-09T16:40:26.174Z,64.18
2023-01-09T16:42:46.563Z,55.35
2023-01-09T16:44:48.603Z,50.40
2023-01-09T16:46:51.397Z,53.15
2023-01-09T16:48:56.244Z,57.38
2023-01-09T16:50:58.072Z,64.28
2023-01-09T16:53:02.323Z,59.92
2023-01-09T16:55:05.373Z,55.83
2023-01-09T16:57:13.713Z,50.13
2023-01-09T16:59:20.705Z,53.45
2023-01-09T17:01:23.434Z,40.53
2023-01-09T17:03:25.912Z,34.38
2023-01-09T17:05:27.841Z,27.73
2023-01-09T17:07:31.262Z,132.45
2023-01-09T17:09:33.235Z,168.85
2023-01-09T17:11:35.812Z,158.20
2023-01-09T17:13:37.804Z,100.15
2023-01-09T17:15:39.697Z,81.70
2023-01-09T17:17:41.805Z,54.50
2023-01-09T17:19:44.027Z,39.58
2023-01-09T17:21:46.446Z,38.38
2023-01-09T17:24:09.079Z,44.28
2023-01-09T17:26:36.272Z,38.00
2023-01-09T17:28:39.803Z,33.53
2023-01-09T17:30:42.052Z,12.68
2023-01-09T17:32:44.120Z,7.35
2023-01-09T17:34:46.565Z,6.90
2023-01-09T17:36:48.634Z,6.65
2023-01-09T17:38:54.966Z,7.40
2023-01-09T17:40:56.971Z,8.48
2023-01-09T17:42:58.926Z,7.97
2023-01-09T17:45:01.037Z,8.70
2023-01-09T17:47:02.920Z,7.03
2023-01-09T17:49:06.664Z,14.23
2023-01-09T17:51:09.676Z,10.98
2023-01-09T17:53:12.417Z,10.88
2023-01-09T17:55:14.984Z,8.82
2023-01-09T17:57:17.697Z,7.63
2023-01-09T17:59:19.809Z,8.15
2023-01-09T18:01:22.131Z,6.28
2023-01-09T18:03:26.216Z,5.30
2023-01-09T18:05:28.786Z,5.25
2023-01-09T18:07:30.598Z,6.93
2023-01-09T18:09:32.925Z,6.97
2023-01-09T18:11:34.772Z,8.40
2023-01-09T18:13:36.811Z,8.68
2023-01-09T18:15:42.288Z,6.97
2023-01-09T18:17:44.623Z,6.60
2023-01-09T18:19:46.826Z,5.53
2023-01-09T18:21:48.724Z,5.70
2023-01-09T18:23:50.780Z,5.18
2023-01-09T18:25:52.650Z,9.55
2023-01-09T18:27:54.691Z,9.52
2023-01-09T18:29:57.345Z,11.20
2023-01-09T18:31:59.465Z,20.90
2023-01-09T18:34:05.690Z,19.17
2023-01-09T18:36:09.739Z,19.30
2023-01-09T18:38:12.489Z,23.65
2023-01-09T18:40:14.615Z,28.80
2023-01-09T18:42:16.832Z,26.35
2023-01-09T18:44:22.060Z,31.48
2023-01-09T18:46:24.842Z,27.88
2023-01-09T18:48:26.989Z,23.17
2023-01-09T18:50:29.108Z,20.08
2023-01-09T18:52:30.936Z,20.90
2023-01-09T18:54:32.887Z,21.27
2023-01-09T18:56:35.825Z,21.75
2023-01-09T18:58:37.767Z,21.42
2023-01-09T19:00:41.380Z,17.55
2023-01-09T19:02:43.257Z,12.45
2023-01-09T19:04:45.109Z,17.65
2023-01-09T19:06:47.117Z,23.02
2023-01-09T19:08:49.009Z,25.33
2023-01-09T19:10:52.461Z,21.25
2023-01-09T19:12:54.322Z,15.82
2023-01-09T19:14:56.289Z,11.65
2023-01-09T19:16:59.321Z,10.25
2023-01-09T19:19:02.883Z,49.33
2023-01-09T19:21:13.870Z,197.77
2023-01-09T19:23:17.014Z,144.45
2023-01-09T19:25:18.857Z,98.80
2023-01-09T19:27:20.641Z,95.82
2023-01-09T19:29:22.523Z,98.78
2023-01-09T19:31:26.177Z,115.78
2023-01-09T19:33:28.163Z,108.82
2023-01-09T19:35:30.097Z,215.63
2023-01-09T19:37:32.525Z,135.63
2023-01-09T19:39:34.449Z,125.05
2023-01-09T19:41:36.285Z,134.07
2023-01-09T19:43:40.454Z,81.03
2023-01-09T19:45:42.419Z,49.75
2023-01-09T19:47:45.447Z,29.45
2023-01-09T19:49:47.514Z,23.27
2023-01-09T19:51:50.454Z,17.77
2023-01-09T19:53:54.091Z,13.10
2023-01-09T19:56:07.216Z,12.90
2023-01-09T19:58:09.175Z,9.63
2023-01-09T20:00:12.551Z,8.27
2023-01-09T20:02:15.462Z,7.80
2023-01-09T20:04:18.784Z,7.45
2023-01-09T20:06:24.410Z,9.07
2023-01-09T20:08:26.266Z,9.25
2023-01-09T20:10:28.103Z,8.95
2023-01-09T20:12:29.886Z,8.73
2023-01-09T20:14:31.846Z,11.55
2023-01-09T20:16:33.619Z,17.15
2023-01-09T20:18:36.406Z,20.65
2023-01-09T20:20:38.182Z,17.75
2023-01-09T20:22:40.028Z,12.02
2023-01-09T20:24:42.182Z,10.82
2023-01-09T20:26:46.284Z,9.95
2023-01-09T20:28:48.263Z,10.25
2023-01-09T20:30:51.882Z,9.82
2023-01-09T20:32:54.033Z,9.90
2023-01-09T20:34:56.199Z,10.07
2023-01-09T20:36:58.184Z,10.30
2023-01-09T20:39:02.313Z,9.77
2023-01-09T20:41:12.662Z,24.05
2023-01-09T20:43:14.634Z,39.10
2023-01-09T20:45:16.550Z,39.40
2023-01-09T20:47:18.424Z,39.45
2023-01-09T20:49:21.040Z,29.30
2023-01-09T20:51:23.139Z,27.08
2023-01-09T20:53:25.019Z,30.63
2023-01-09T20:55:26.902Z,32.33
2023-01-09T20:57:28.801Z,30.90
2023-01-09T20:59:30.707Z,31.58
2023-01-09T21:01:32.979Z,28.88
2023-01-09T21:03:34.922Z,25.80
2023-01-09T21:05:40.537Z,21.40
2023-01-09T21:07:42.325Z,16.85
2023-01-09T21:09:44.247Z,16.65
2023-01-09T21:11:46.132Z,17.35
2023-01-09T21:13:48.814Z,19.52
2023-01-09T21:15:50.718Z,19.35
2023-01-09T21:17:52.730Z,19.48
2023-01-09T21:19:54.980Z,18.55
2023-01-09T21:21:56.761Z,21.40
2023-01-09T21:24:00.960Z,32.45
2023-01-09T21:26:09.761Z,36.30
2023-01-09T21:28:15.025Z,37.75
2023-01-09T21:30:17.181Z,30.88
2023-01-09T21:32:19.116Z,33.60
2023-01-09T21:34:20.984Z,27.27
2023-01-09T21:36:23.271Z,26.15
2023-01-09T21:38:27.825Z,24.63
2023-01-09T21:40:29.712Z,21.45
2023-01-09T21:42:50.322Z,20.50
2023-01-09T21:45:10.430Z,18.77
2023-01-09T21:47:12.769Z,17.90
2023-01-09T21:49:14.621Z,54.95
2023-01-09T21:51:16.465Z,44.65
2023-01-09T21:53:18.520Z,40.35
2023-01-09T21:55:20.486Z,33.25
2023-01-09T21:57:22.345Z,38.92
2023-01-09T21:59:24.228Z,30.63
2023-01-09T22:01:26.119Z,18.90
2023-01-09T22:03:28.275Z,16.77
2023-01-09T22:05:29.997Z,15.02
2023-01-09T22:07:31.783Z,12.88
2023-01-09T22:09:33.662Z,10.30
2023-01-09T22:11:35.970Z,9.77
2023-01-09T22:13:38.155Z,11.65
2023-01-09T22:15:41.317Z,13.13
2023-01-09T22:17:43.158Z,11.32
2023-01-09T22:19:45.038Z,11.13
2023-01-09T22:21:47.186Z,10.95
2023-01-09T22:23:49.296Z,9.63
2023-01-09T22:25:51.193Z,11.40
2023-01-09T22:27:53.070Z,9.70
2023-01-09T22:29:54.791Z,12.82
2023-01-09T22:31:56.565Z,14.10
2023-01-09T22:34:05.131Z,13.55
2023-01-09T22:36:09.085Z,12.77
2023-01-09T22:38:11.924Z,11.88
2023-01-09T22:40:14.120Z,10.13
2023-01-09T22:42:16.781Z,9.13
2023-01-09T22:44:19.464Z,9.48
2023-01-09T22:46:21.452Z,9.18
2023-01-09T22:48:23.449Z,9.07
2023-01-09T22:50:25.715Z,9.20
2023-01-09T22:52:28.702Z,9.48
2023-01-09T22:54:30.653Z,10.30
2023-01-09T22:56:32.549Z,10.68
2023-01-09T22:58:34.627Z,11.73
2023-01-09T23:00:36.480Z,11.68
2023-01-09T23:02:38.660Z,10.05
2023-01-09T23:04:40.460Z,11.50
2023-01-09T23:06:43.349Z,11.63
2023-01-09T23:08:46.220Z,10.63
2023-01-09T23:10:48.049Z,11.15
2023-01-09T23:12:50.435Z,10.27
2023-01-09T23:14:52.359Z,10.45
2023-01-09T23:16:55.185Z,10.82
2023-01-09T23:18:57.250Z,10.13
2023-01-09T23:21:02.084Z,10.50
2023-01-09T23:23:04.004Z,10.27
2023-01-09T23:25:06.231Z,8.43
2023-01-09T23:27:08.247Z,8.88
2023-01-09T23:29:11.770Z,9.68
2023-01-09T23:31:13.808Z,10.65
2023-01-09T23:33:16.783Z,9.90
2023-01-09T23:35:19.096Z,10.25
2023-01-09T23:37:20.905Z,10.52
2023-01-09T23:39:23.087Z,10.30
2023-01-09T23:41:44.805Z,11.32
2023-01-09T23:43:46.749Z,13.18
2023-01-09T23:45:50.651Z,13.70
2023-01-09T23:47:52.706Z,12.40
2023-01-09T23:49:54.508Z,12.05
2023-01-09T23:51:56.629Z,10.90
2023-01-09T23:53:58.508Z,12.15
2023-01-09T23:56:01.260Z,12.13
2023-01-09T23:58:03.424Z,12.48
